Home   Weather   Amos Backbone   Past weeks
Flag for USA

Past Weather in Amos Backbone, Utah, USA — Yesterday and Last 2 Weeks

Currently: 72 °F. Scattered clouds. (Weather station: Provo Municipal, USA). See more current weather

Past Weather in Amos Backbone — Graph

°F

Amos Backbone Temperature Yesterday

Maximum temperature yesterday: 89 °F (at 4:56 pm)
Minimum temperature yesterday: 53 °F (at 7:56 am)
Average temperature yesterday: 68 °F

High & Low Weather Summary for the Past Weeks

 TemperatureHumidityPressure
High95 °F (Sep 9, 3:56 pm)87% (Sep 11, 7:56 am)30.28 "Hg (Sep 11, 7:56 am)
Low51 °F (Sep 4, 4:56 am)12% (Sep 5, 5:56 pm)29.70 "Hg (Sep 1, 6:56 pm)
Average70 °F46%29.96 "Hg
* Reported Sep 1 9:56 am — Sep 16 9:56 am, Amos Backbone. Weather by CustomWeather, © 2021

Note: Actual official high and low records may vary slightly from our data, if they occured in-between our weather recording intervals... More about our weather records

Amos Backbone Weather History for the Previous 24 Hours

Scroll right to see more
 ConditionsComfort  
Time TempWeatherWind HumidityBarometerVisibility
9:56 am
Thu, Sep 16
72 °FScattered clouds.3 mph28%29.79 "Hg10 mi
8:56 am65 °FScattered clouds.3 mph32%29.80 "Hg10 mi
7:56 am54 °FSunny.No wind53%29.81 "Hg10 mi
6:56 am54 °FClear.No wind45%29.76 "Hg10 mi
5:56 am56 °FClear.5 mph44%29.74 "Hg10 mi
4:56 am56 °FClear.5 mph46%29.74 "Hg10 mi
3:56 am56 °FClear.3 mph49%29.74 "Hg10 mi
2:56 am56 °FClear.3 mph47%29.75 "Hg10 mi
1:56 am60 °FClear.No wind41%29.75 "Hg10 mi
12:56 am63 °FClear.5 mph37%29.76 "Hg10 mi
11:56 pm
Wed, Sep 15
63 °FClear.10 mph38%29.75 "Hg10 mi
11:25 pm63 °FClear.7 mph42%29.90 "Hg10 mi
11:09 pm63 °FClear.8 mph39%29.90 "Hg2 mi
10:56 pm63 °FClear.8 mph37%29.76 "Hg3 mi
10:39 pm66 °FClear.5 mph32%29.90 "Hg1 mi
10:10 pm70 °FClear.3 mph33%29.91 "Hg2 mi
9:56 pm68 °FClear.5 mph42%29.77 "Hg4 mi
9:03 pm72 °FClear.6 mph38%29.91 "Hg1 mi
8:56 pm70 °FClear.8 mph31%29.78 "Hg10 mi
7:56 pm75 °FClear.8 mph34%29.78 "Hg9 mi
6:56 pm86 °FSunny.7 mph17%29.77 "Hg10 mi
5:56 pm89 °FSunny.5 mph15%29.77 "Hg10 mi
4:56 pm89 °FSunny.5 mph15%29.78 "Hg10 mi
3:56 pm88 °FSunny.6 mph17%29.80 "Hg10 mi
2:56 pm87 °FSunny.6 mph17%29.83 "Hg10 mi
1:56 pm82 °FSunny.No wind27%29.87 "Hg10 mi
12:56 pm78 °FSunny.6 mph39%29.91 "Hg10 mi
11:56 am75 °FSunny.6 mph30%29.94 "Hg10 mi
10:56 am70 °FSunny.No wind35%29.97 "Hg10 mi
Weather by CustomWeather, © 2021

See weather overview